sensor_id;sensor_type;location;lat;lon;timestamp;P1;durP1;ratioP1;P2;durP2;ratioP2
18082;SDS011;9168;51.194;6.840;2022-08-19T00:01:56;20.27;;;11.13;;
18082;SDS011;9168;51.194;6.840;2022-08-19T00:04:24;16.85;;;10.95;;
18082;SDS011;9168;51.194;6.840;2022-08-19T00:06:53;21.30;;;12.07;;
18082;SDS011;9168;51.194;6.840;2022-08-19T00:09:21;16.08;;;11.30;;
18082;SDS011;9168;51.194;6.840;2022-08-19T00:11:49;22.35;;;12.30;;
18082;SDS011;9168;51.194;6.840;2022-08-19T00:14:18;23.13;;;11.73;;
18082;SDS011;9168;51.194;6.840;2022-08-19T00:16:47;16.95;;;11.50;;
18082;SDS011;9168;51.194;6.840;2022-08-19T00:19:14;17.58;;;11.13;;
18082;SDS011;9168;51.194;6.840;2022-08-19T00:21:41;16.75;;;11.77;;
18082;SDS011;9168;51.194;6.840;2022-08-19T00:24:09;14.82;;;10.13;;
18082;SDS011;9168;51.194;6.840;2022-08-19T00:26:38;17.90;;;10.07;;
18082;SDS011;9168;51.194;6.840;2022-08-19T00:29:06;16.13;;;9.75;;
18082;SDS011;9168;51.194;6.840;2022-08-19T00:31:36;12.35;;;8.73;;
18082;SDS011;9168;51.194;6.840;2022-08-19T00:34:03;15.30;;;9.63;;
18082;SDS011;9168;51.194;6.840;2022-08-19T00:36:29;17.80;;;10.40;;
18082;SDS011;9168;51.194;6.840;2022-08-19T00:38:57;18.65;;;9.82;;
18082;SDS011;9168;51.194;6.840;2022-08-19T00:41:25;14.85;;;9.13;;
18082;SDS011;9168;51.194;6.840;2022-08-19T00:44:00;13.18;;;9.25;;
18082;SDS011;9168;51.194;6.840;2022-08-19T00:46:30;18.55;;;9.90;;
18082;SDS011;9168;51.194;6.840;2022-08-19T00:49:00;14.50;;;9.32;;
18082;SDS011;9168;51.194;6.840;2022-08-19T00:51:31;15.43;;;9.70;;
18082;SDS011;9168;51.194;6.840;2022-08-19T00:53:59;18.48;;;9.70;;
18082;SDS011;9168;51.194;6.840;2022-08-19T00:56:27;12.32;;;9.27;;
18082;SDS011;9168;51.194;6.840;2022-08-19T00:58:55;15.55;;;9.55;;
18082;SDS011;9168;51.194;6.840;2022-08-19T01:01:24;19.38;;;9.70;;
18082;SDS011;9168;51.194;6.840;2022-08-19T01:03:51;16.63;;;9.93;;
18082;SDS011;9168;51.194;6.840;2022-08-19T01:06:19;16.77;;;10.05;;
18082;SDS011;9168;51.194;6.840;2022-08-19T01:08:46;18.00;;;10.23;;
18082;SDS011;9168;51.194;6.840;2022-08-19T01:11:13;16.10;;;9.82;;
18082;SDS011;9168;51.194;6.840;2022-08-19T01:13:40;19.38;;;11.38;;
18082;SDS011;9168;51.194;6.840;2022-08-19T01:16:08;20.17;;;9.95;;
18082;SDS011;9168;51.194;6.840;2022-08-19T01:18:36;16.17;;;10.60;;
18082;SDS011;9168;51.194;6.840;2022-08-19T01:21:08;14.40;;;9.55;;
18082;SDS011;9168;51.194;6.840;2022-08-19T01:23:42;21.63;;;10.05;;
18082;SDS011;9168;51.194;6.840;2022-08-19T01:26:10;22.48;;;10.93;;
18082;SDS011;9168;51.194;6.840;2022-08-19T01:28:39;21.67;;;10.20;;
18082;SDS011;9168;51.194;6.840;2022-08-19T01:31:08;22.67;;;9.80;;
18082;SDS011;9168;51.194;6.840;2022-08-19T01:33:38;18.83;;;10.00;;
18082;SDS011;9168;51.194;6.840;2022-08-19T01:36:07;19.27;;;9.15;;
18082;SDS011;9168;51.194;6.840;2022-08-19T01:38:37;15.43;;;9.63;;
18082;SDS011;9168;51.194;6.840;2022-08-19T01:41:08;12.82;;;8.63;;
18082;SDS011;9168;51.194;6.840;2022-08-19T01:43:36;15.55;;;9.50;;
18082;SDS011;9168;51.194;6.840;2022-08-19T01:46:03;15.60;;;8.65;;
18082;SDS011;9168;51.194;6.840;2022-08-19T01:48:34;15.00;;;8.40;;
18082;SDS011;9168;51.194;6.840;2022-08-19T01:51:03;16.33;;;8.82;;
18082;SDS011;9168;51.194;6.840;2022-08-19T01:53:30;15.20;;;8.07;;
18082;SDS011;9168;51.194;6.840;2022-08-19T01:55:57;14.05;;;8.45;;
18082;SDS011;9168;51.194;6.840;2022-08-19T01:58:27;14.10;;;8.60;;
18082;SDS011;9168;51.194;6.840;2022-08-19T02:00:58;14.90;;;8.60;;
18082;SDS011;9168;51.194;6.840;2022-08-19T02:03:25;13.55;;;8.18;;
18082;SDS011;9168;51.194;6.840;2022-08-19T02:05:55;15.20;;;8.07;;
18082;SDS011;9168;51.194;6.840;2022-08-19T02:08:24;13.65;;;7.93;;
18082;SDS011;9168;51.194;6.840;2022-08-19T02:10:51;13.43;;;8.75;;
18082;SDS011;9168;51.194;6.840;2022-08-19T02:13:19;16.23;;;8.75;;
18082;SDS011;9168;51.194;6.840;2022-08-19T02:15:47;11.60;;;8.55;;
18082;SDS011;9168;51.194;6.840;2022-08-19T02:18:14;15.90;;;8.50;;
18082;SDS011;9168;51.194;6.840;2022-08-19T02:20:41;17.33;;;9.07;;
18082;SDS011;9168;51.194;6.840;2022-08-19T02:23:10;20.02;;;8.75;;
18082;SDS011;9168;51.194;6.840;2022-08-19T02:25:38;19.67;;;9.65;;
18082;SDS011;9168;51.194;6.840;2022-08-19T02:28:06;20.25;;;9.95;;
18082;SDS011;9168;51.194;6.840;2022-08-19T02:30:33;17.15;;;10.73;;
18082;SDS011;9168;51.194;6.840;2022-08-19T02:33:02;16.88;;;11.23;;
18082;SDS011;9168;51.194;6.840;2022-08-19T02:35:29;20.98;;;10.70;;
18082;SDS011;9168;51.194;6.840;2022-08-19T02:37:56;16.92;;;10.00;;
18082;SDS011;9168;51.194;6.840;2022-08-19T02:40:41;17.02;;;10.50;;
18082;SDS011;9168;51.194;6.840;2022-08-19T02:43:15;16.85;;;10.48;;
18082;SDS011;9168;51.194;6.840;2022-08-19T02:45:42;16.80;;;9.52;;
18082;SDS011;9168;51.194;6.840;2022-08-19T02:48:10;18.48;;;10.30;;
18082;SDS011;9168;51.194;6.840;2022-08-19T02:50:38;20.67;;;10.23;;
18082;SDS011;9168;51.194;6.840;2022-08-19T02:53:06;19.88;;;10.43;;
18082;SDS011;9168;51.194;6.840;2022-08-19T02:55:33;17.38;;;9.57;;
18082;SDS011;9168;51.194;6.840;2022-08-19T02:58:00;19.40;;;10.55;;
18082;SDS011;9168;51.194;6.840;2022-08-19T03:00:27;18.92;;;9.88;;
18082;SDS011;9168;51.194;6.840;2022-08-19T03:02:54;18.52;;;9.60;;
18082;SDS011;9168;51.194;6.840;2022-08-19T03:05:23;14.60;;;9.50;;
18082;SDS011;9168;51.194;6.840;2022-08-19T03:07:50;13.65;;;10.02;;
18082;SDS011;9168;51.194;6.840;2022-08-19T03:10:17;16.98;;;9.65;;
18082;SDS011;9168;51.194;6.840;2022-08-19T03:12:44;21.08;;;10.35;;
18082;SDS011;9168;51.194;6.840;2022-08-19T03:15:11;23.63;;;10.98;;
18082;SDS011;9168;51.194;6.840;2022-08-19T03:17:38;20.00;;;9.98;;
18082;SDS011;9168;51.194;6.840;2022-08-19T03:20:05;24.95;;;10.63;;
18082;SDS011;9168;51.194;6.840;2022-08-19T03:22:34;33.60;;;11.05;;
18082;SDS011;9168;51.194;6.840;2022-08-19T03:25:01;21.02;;;10.98;;
18082;SDS011;9168;51.194;6.840;2022-08-19T03:27:29;27.88;;;10.68;;
18082;SDS011;9168;51.194;6.840;2022-08-19T03:29:55;26.52;;;10.30;;
18082;SDS011;9168;51.194;6.840;2022-08-19T03:32:23;23.50;;;10.15;;
18082;SDS011;9168;51.194;6.840;2022-08-19T03:34:50;23.63;;;10.23;;
18082;SDS011;9168;51.194;6.840;2022-08-19T03:37:17;28.08;;;11.43;;
18082;SDS011;9168;51.194;6.840;2022-08-19T03:39:46;28.40;;;10.93;;
18082;SDS011;9168;51.194;6.840;2022-08-19T03:42:12;23.33;;;11.65;;
18082;SDS011;9168;51.194;6.840;2022-08-19T03:44:42;21.20;;;11.13;;
18082;SDS011;9168;51.194;6.840;2022-08-19T03:47:09;24.15;;;10.52;;
18082;SDS011;9168;51.194;6.840;2022-08-19T03:49:41;18.02;;;10.40;;
18082;SDS011;9168;51.194;6.840;2022-08-19T03:52:08;20.20;;;10.15;;
18082;SDS011;9168;51.194;6.840;2022-08-19T03:54:35;17.95;;;9.73;;
18082;SDS011;9168;51.194;6.840;2022-08-19T03:57:05;20.98;;;10.48;;
18082;SDS011;9168;51.194;6.840;2022-08-19T03:59:34;20.88;;;9.82;;
18082;SDS011;9168;51.194;6.840;2022-08-19T04:02:04;14.38;;;9.50;;
18082;SDS011;9168;51.194;6.840;2022-08-19T04:04:34;24.17;;;9.52;;
18082;SDS011;9168;51.194;6.840;2022-08-19T04:07:02;17.70;;;9.52;;
18082;SDS011;9168;51.194;6.840;2022-08-19T04:09:29;25.63;;;10.88;;
18082;SDS011;9168;51.194;6.840;2022-08-19T04:11:56;18.35;;;9.65;;
18082;SDS011;9168;51.194;6.840;2022-08-19T04:14:26;19.63;;;10.35;;
18082;SDS011;9168;51.194;6.840;2022-08-19T04:16:55;28.23;;;11.05;;
18082;SDS011;9168;51.194;6.840;2022-08-19T04:19:22;20.98;;;10.88;;
18082;SDS011;9168;51.194;6.840;2022-08-19T04:21:50;20.38;;;10.73;;
18082;SDS011;9168;51.194;6.840;2022-08-19T04:24:19;21.83;;;11.18;;
18082;SDS011;9168;51.194;6.840;2022-08-19T04:26:47;23.75;;;10.73;;
18082;SDS011;9168;51.194;6.840;2022-08-19T04:29:14;33.33;;;11.70;;
18082;SDS011;9168;51.194;6.840;2022-08-19T04:31:45;31.65;;;11.55;;
18082;SDS011;9168;51.194;6.840;2022-08-19T04:34:13;37.97;;;11.60;;
18082;SDS011;9168;51.194;6.840;2022-08-19T04:36:42;31.17;;;11.30;;
18082;SDS011;9168;51.194;6.840;2022-08-19T04:39:11;31.10;;;11.27;;
18082;SDS011;9168;51.194;6.840;2022-08-19T04:41:40;32.95;;;12.38;;
18082;SDS011;9168;51.194;6.840;2022-08-19T04:44:38;25.67;;;11.55;;
18082;SDS011;9168;51.194;6.840;2022-08-19T04:47:07;25.83;;;12.60;;
18082;SDS011;9168;51.194;6.840;2022-08-19T04:49:37;28.35;;;12.55;;
18082;SDS011;9168;51.194;6.840;2022-08-19T04:52:04;22.17;;;12.43;;
18082;SDS011;9168;51.194;6.840;2022-08-19T04:54:31;20.98;;;12.45;;
18082;SDS011;9168;51.194;6.840;2022-08-19T04:56:57;22.20;;;13.63;;
18082;SDS011;9168;51.194;6.840;2022-08-19T04:59:24;30.73;;;13.90;;
18082;SDS011;9168;51.194;6.840;2022-08-19T05:01:51;34.55;;;14.18;;
18082;SDS011;9168;51.194;6.840;2022-08-19T05:04:19;33.67;;;14.50;;
18082;SDS011;9168;51.194;6.840;2022-08-19T05:06:47;34.47;;;14.80;;
18082;SDS011;9168;51.194;6.840;2022-08-19T05:09:16;29.23;;;15.75;;
18082;SDS011;9168;51.194;6.840;2022-08-19T05:11:44;43.95;;;15.23;;
18082;SDS011;9168;51.194;6.840;2022-08-19T05:14:11;32.00;;;15.70;;
18082;SDS011;9168;51.194;6.840;2022-08-19T05:16:39;32.92;;;15.40;;
18082;SDS011;9168;51.194;6.840;2022-08-19T05:19:06;26.33;;;15.23;;
18082;SDS011;9168;51.194;6.840;2022-08-19T05:21:51;36.53;;;24.83;;
18082;SDS011;9168;51.194;6.840;2022-08-19T05:24:35;48.05;;;33.38;;
18082;SDS011;9168;51.194;6.840;2022-08-19T05:27:03;50.53;;;35.05;;
18082;SDS011;9168;51.194;6.840;2022-08-19T05:29:30;62.33;;;40.85;;
18082;SDS011;9168;51.194;6.840;2022-08-19T05:31:59;51.17;;;37.88;;
18082;SDS011;9168;51.194;6.840;2022-08-19T05:34:27;53.90;;;40.53;;
18082;SDS011;9168;51.194;6.840;2022-08-19T05:36:56;64.03;;;45.38;;
18082;SDS011;9168;51.194;6.840;2022-08-19T05:39:25;63.92;;;45.17;;
18082;SDS011;9168;51.194;6.840;2022-08-19T05:41:58;64.78;;;46.63;;
18082;SDS011;9168;51.194;6.840;2022-08-19T05:44:26;62.58;;;45.42;;
18082;SDS011;9168;51.194;6.840;2022-08-19T05:46:56;67.72;;;47.75;;
18082;SDS011;9168;51.194;6.840;2022-08-19T05:49:24;57.25;;;45.65;;
18082;SDS011;9168;51.194;6.840;2022-08-19T05:51:52;69.20;;;47.92;;
18082;SDS011;9168;51.194;6.840;2022-08-19T05:54:21;62.10;;;47.22;;
18082;SDS011;9168;51.194;6.840;2022-08-19T05:56:49;65.25;;;46.50;;
18082;SDS011;9168;51.194;6.840;2022-08-19T05:59:17;69.28;;;47.55;;
18082;SDS011;9168;51.194;6.840;2022-08-19T06:01:46;69.05;;;48.83;;
18082;SDS011;9168;51.194;6.840;2022-08-19T06:04:15;64.10;;;49.28;;
18082;SDS011;9168;51.194;6.840;2022-08-19T06:06:43;61.75;;;48.08;;
18082;SDS011;9168;51.194;6.840;2022-08-19T06:09:12;75.15;;;49.35;;
18082;SDS011;9168;51.194;6.840;2022-08-19T06:11:41;57.63;;;45.88;;
18082;SDS011;9168;51.194;6.840;2022-08-19T06:14:10;57.50;;;44.25;;
18082;SDS011;9168;51.194;6.840;2022-08-19T06:16:39;67.10;;;47.28;;
18082;SDS011;9168;51.194;6.840;2022-08-19T06:19:08;63.83;;;42.50;;
18082;SDS011;9168;51.194;6.840;2022-08-19T06:21:36;59.90;;;45.13;;
18082;SDS011;9168;51.194;6.840;2022-08-19T06:24:05;65.03;;;48.60;;
18082;SDS011;9168;51.194;6.840;2022-08-19T06:26:34;66.15;;;49.20;;
18082;SDS011;9168;51.194;6.840;2022-08-19T06:29:04;69.75;;;49.97;;
18082;SDS011;9168;51.194;6.840;2022-08-19T06:31:33;61.90;;;45.08;;
18082;SDS011;9168;51.194;6.840;2022-08-19T06:34:02;63.55;;;43.88;;
18082;SDS011;9168;51.194;6.840;2022-08-19T06:36:33;73.50;;;50.00;;
18082;SDS011;9168;51.194;6.840;2022-08-19T06:39:02;59.92;;;43.38;;
18082;SDS011;9168;51.194;6.840;2022-08-19T06:41:34;66.55;;;49.28;;
18082;SDS011;9168;51.194;6.840;2022-08-19T06:44:04;65.38;;;48.58;;
18082;SDS011;9168;51.194;6.840;2022-08-19T06:46:31;67.28;;;48.90;;
18082;SDS011;9168;51.194;6.840;2022-08-19T06:48:59;71.15;;;50.75;;
18082;SDS011;9168;51.194;6.840;2022-08-19T06:51:26;61.35;;;45.95;;
18082;SDS011;9168;51.194;6.840;2022-08-19T06:53:54;63.00;;;48.65;;
18082;SDS011;9168;51.194;6.840;2022-08-19T06:56:22;71.80;;;51.05;;
18082;SDS011;9168;51.194;6.840;2022-08-19T06:58:55;72.15;;;50.97;;
18082;SDS011;9168;51.194;6.840;2022-08-19T07:01:24;67.53;;;48.50;;
18082;SDS011;9168;51.194;6.840;2022-08-19T07:03:51;76.03;;;51.65;;
18082;SDS011;9168;51.194;6.840;2022-08-19T07:06:18;76.40;;;51.13;;
18082;SDS011;9168;51.194;6.840;2022-08-19T07:08:45;65.57;;;46.58;;
18082;SDS011;9168;51.194;6.840;2022-08-19T07:11:15;64.22;;;47.72;;
18082;SDS011;9168;51.194;6.840;2022-08-19T07:13:44;59.95;;;45.45;;
18082;SDS011;9168;51.194;6.840;2022-08-19T07:16:13;70.40;;;48.92;;
18082;SDS011;9168;51.194;6.840;2022-08-19T07:18:42;67.93;;;47.35;;
18082;SDS011;9168;51.194;6.840;2022-08-19T07:21:10;71.32;;;46.70;;
18082;SDS011;9168;51.194;6.840;2022-08-19T07:23:39;68.93;;;48.55;;
18082;SDS011;9168;51.194;6.840;2022-08-19T07:26:06;67.25;;;46.83;;
18082;SDS011;9168;51.194;6.840;2022-08-19T07:28:34;60.83;;;44.67;;
18082;SDS011;9168;51.194;6.840;2022-08-19T07:31:04;65.93;;;47.95;;
18082;SDS011;9168;51.194;6.840;2022-08-19T07:33:31;69.07;;;46.65;;
18082;SDS011;9168;51.194;6.840;2022-08-19T07:36:02;65.53;;;47.35;;
18082;SDS011;9168;51.194;6.840;2022-08-19T07:38:30;66.45;;;44.45;;
18082;SDS011;9168;51.194;6.840;2022-08-19T07:40:57;66.22;;;45.70;;
18082;SDS011;9168;51.194;6.840;2022-08-19T07:43:24;65.65;;;47.67;;
18082;SDS011;9168;51.194;6.840;2022-08-19T07:45:52;62.85;;;46.50;;
18082;SDS011;9168;51.194;6.840;2022-08-19T07:48:21;63.75;;;43.63;;
18082;SDS011;9168;51.194;6.840;2022-08-19T07:50:50;60.72;;;41.55;;
18082;SDS011;9168;51.194;6.840;2022-08-19T07:53:19;67.22;;;45.38;;
18082;SDS011;9168;51.194;6.840;2022-08-19T07:55:46;62.97;;;40.05;;
18082;SDS011;9168;51.194;6.840;2022-08-19T07:58:14;49.10;;;38.67;;
18082;SDS011;9168;51.194;6.840;2022-08-19T08:00:44;61.47;;;42.95;;
18082;SDS011;9168;51.194;6.840;2022-08-19T08:03:12;48.75;;;37.08;;
18082;SDS011;9168;51.194;6.840;2022-08-19T08:05:40;53.75;;;38.10;;
18082;SDS011;9168;51.194;6.840;2022-08-19T08:08:26;51.65;;;37.85;;
18082;SDS011;9168;51.194;6.840;2022-08-19T08:11:11;52.53;;;35.45;;
18082;SDS011;9168;51.194;6.840;2022-08-19T08:13:39;50.65;;;35.83;;
18082;SDS011;9168;51.194;6.840;2022-08-19T08:16:06;42.20;;;31.10;;
18082;SDS011;9168;51.194;6.840;2022-08-19T08:18:33;49.42;;;36.70;;
18082;SDS011;9168;51.194;6.840;2022-08-19T08:21:06;45.47;;;32.47;;
18082;SDS011;9168;51.194;6.840;2022-08-19T08:23:35;43.53;;;29.90;;
18082;SDS011;9168;51.194;6.840;2022-08-19T08:26:03;41.13;;;30.08;;
18082;SDS011;9168;51.194;6.840;2022-08-19T08:28:31;48.95;;;31.17;;
18082;SDS011;9168;51.194;6.840;2022-08-19T08:30:58;40.63;;;26.83;;
18082;SDS011;9168;51.194;6.840;2022-08-19T08:33:27;38.15;;;26.60;;
18082;SDS011;9168;51.194;6.840;2022-08-19T08:35:56;35.45;;;24.55;;
18082;SDS011;9168;51.194;6.840;2022-08-19T08:38:24;45.47;;;29.13;;
18082;SDS011;9168;51.194;6.840;2022-08-19T08:40:53;45.33;;;30.60;;
18082;SDS011;9168;51.194;6.840;2022-08-19T08:43:32;48.10;;;34.75;;
18082;SDS011;9168;51.194;6.840;2022-08-19T08:46:03;47.92;;;29.98;;
18082;SDS011;9168;51.194;6.840;2022-08-19T08:48:34;53.22;;;35.78;;
18082;SDS011;9168;51.194;6.840;2022-08-19T08:51:13;49.95;;;33.55;;
18082;SDS011;9168;51.194;6.840;2022-08-19T08:53:44;60.67;;;40.88;;
18082;SDS011;9168;51.194;6.840;2022-08-19T08:56:16;50.35;;;35.00;;
18082;SDS011;9168;51.194;6.840;2022-08-19T08:58:46;43.40;;;29.33;;
18082;SDS011;9168;51.194;6.840;2022-08-19T09:01:20;45.10;;;28.00;;
18082;SDS011;9168;51.194;6.840;2022-08-19T09:03:47;45.67;;;31.15;;
18082;SDS011;9168;51.194;6.840;2022-08-19T09:06:18;51.47;;;32.40;;
18082;SDS011;9168;51.194;6.840;2022-08-19T09:08:56;42.40;;;28.98;;
18082;SDS011;9168;51.194;6.840;2022-08-19T09:11:33;50.97;;;30.30;;
18082;SDS011;9168;51.194;6.840;2022-08-19T09:14:12;47.28;;;33.20;;
18082;SDS011;9168;51.194;6.840;2022-08-19T09:16:51;42.78;;;29.35;;
18082;SDS011;9168;51.194;6.840;2022-08-19T09:19:17;45.28;;;30.70;;
18082;SDS011;9168;51.194;6.840;2022-08-19T09:21:44;41.65;;;28.95;;
18082;SDS011;9168;51.194;6.840;2022-08-19T09:24:15;45.70;;;29.98;;
18082;SDS011;9168;51.194;6.840;2022-08-19T09:26:46;45.13;;;29.70;;
18082;SDS011;9168;51.194;6.840;2022-08-19T09:29:14;40.63;;;26.02;;
18082;SDS011;9168;51.194;6.840;2022-08-19T09:31:42;41.95;;;27.27;;
18082;SDS011;9168;51.194;6.840;2022-08-19T09:34:08;32.03;;;23.85;;
18082;SDS011;9168;51.194;6.840;2022-08-19T09:36:35;32.97;;;21.95;;
18082;SDS011;9168;51.194;6.840;2022-08-19T09:39:04;32.17;;;21.38;;
18082;SDS011;9168;51.194;6.840;2022-08-19T09:41:31;25.23;;;17.13;;
18082;SDS011;9168;51.194;6.840;2022-08-19T09:44:00;23.92;;;15.60;;
18082;SDS011;9168;51.194;6.840;2022-08-19T09:46:28;29.60;;;15.57;;
18082;SDS011;9168;51.194;6.840;2022-08-19T09:48:57;38.78;;;22.48;;
18082;SDS011;9168;51.194;6.840;2022-08-19T09:51:25;29.60;;;21.85;;
18082;SDS011;9168;51.194;6.840;2022-08-19T09:53:54;31.70;;;21.00;;
18082;SDS011;9168;51.194;6.840;2022-08-19T09:56:26;25.95;;;18.17;;
18082;SDS011;9168;51.194;6.840;2022-08-19T09:58:53;28.45;;;19.05;;
18082;SDS011;9168;51.194;6.840;2022-08-19T10:01:21;26.73;;;17.65;;
18082;SDS011;9168;51.194;6.840;2022-08-19T10:03:50;28.80;;;18.10;;
18082;SDS011;9168;51.194;6.840;2022-08-19T10:06:19;34.00;;;20.25;;
18082;SDS011;9168;51.194;6.840;2022-08-19T10:08:48;27.70;;;17.58;;
18082;SDS011;9168;51.194;6.840;2022-08-19T10:11:16;23.33;;;14.95;;
18082;SDS011;9168;51.194;6.840;2022-08-19T10:13:44;21.45;;;12.45;;
18082;SDS011;9168;51.194;6.840;2022-08-19T10:16:11;25.33;;;16.55;;
18082;SDS011;9168;51.194;6.840;2022-08-19T10:18:42;23.45;;;15.15;;
18082;SDS011;9168;51.194;6.840;2022-08-19T10:21:10;29.15;;;19.63;;
18082;SDS011;9168;51.194;6.840;2022-08-19T10:23:40;24.73;;;16.35;;
18082;SDS011;9168;51.194;6.840;2022-08-19T10:26:10;30.13;;;17.75;;
18082;SDS011;9168;51.194;6.840;2022-08-19T10:28:38;19.92;;;13.75;;
18082;SDS011;9168;51.194;6.840;2022-08-19T10:31:06;18.63;;;13.82;;
18082;SDS011;9168;51.194;6.840;2022-08-19T10:33:33;26.25;;;15.48;;
18082;SDS011;9168;51.194;6.840;2022-08-19T10:36:03;25.58;;;14.88;;
18082;SDS011;9168;51.194;6.840;2022-08-19T10:38:32;25.63;;;17.33;;
18082;SDS011;9168;51.194;6.840;2022-08-19T10:41:05;26.33;;;12.82;;
18082;SDS011;9168;51.194;6.840;2022-08-19T10:43:33;22.48;;;15.60;;
18082;SDS011;9168;51.194;6.840;2022-08-19T10:46:02;19.52;;;12.93;;
18082;SDS011;9168;51.194;6.840;2022-08-19T10:48:30;14.25;;;11.18;;
18082;SDS011;9168;51.194;6.840;2022-08-19T10:50:58;17.77;;;11.50;;
18082;SDS011;9168;51.194;6.840;2022-08-19T10:53:43;19.35;;;12.30;;
18082;SDS011;9168;51.194;6.840;2022-08-19T10:56:11;20.55;;;12.30;;
18082;SDS011;9168;51.194;6.840;2022-08-19T10:58:56;17.52;;;12.25;;
18082;SDS011;9168;51.194;6.840;2022-08-19T11:01:23;19.10;;;11.98;;
18082;SDS011;9168;51.194;6.840;2022-08-19T11:03:50;16.33;;;9.43;;
18082;SDS011;9168;51.194;6.840;2022-08-19T11:06:17;16.48;;;10.77;;
18082;SDS011;9168;51.194;6.840;2022-08-19T11:08:46;18.70;;;11.48;;
18082;SDS011;9168;51.194;6.840;2022-08-19T11:11:13;15.60;;;10.05;;
18082;SDS011;9168;51.194;6.840;2022-08-19T11:13:40;17.73;;;12.43;;
18082;SDS011;9168;51.194;6.840;2022-08-19T11:16:11;16.02;;;11.25;;
18082;SDS011;9168;51.194;6.840;2022-08-19T11:18:41;19.30;;;10.00;;
18082;SDS011;9168;51.194;6.840;2022-08-19T11:21:11;16.50;;;11.20;;
18082;SDS011;9168;51.194;6.840;2022-08-19T11:23:42;12.73;;;8.73;;
18082;SDS011;9168;51.194;6.840;2022-08-19T11:26:11;21.98;;;14.18;;
18082;SDS011;9168;51.194;6.840;2022-08-19T11:28:38;18.67;;;12.02;;
18082;SDS011;9168;51.194;6.840;2022-08-19T11:31:09;21.63;;;12.85;;
18082;SDS011;9168;51.194;6.840;2022-08-19T11:33:37;23.95;;;13.85;;
18082;SDS011;9168;51.194;6.840;2022-08-19T11:36:04;20.45;;;10.35;;
18082;SDS011;9168;51.194;6.840;2022-08-19T11:38:32;14.60;;;10.07;;
18082;SDS011;9168;51.194;6.840;2022-08-19T11:41:01;21.27;;;12.30;;
18082;SDS011;9168;51.194;6.840;2022-08-19T11:43:31;13.68;;;9.85;;
18082;SDS011;9168;51.194;6.840;2022-08-19T11:45:58;18.35;;;12.05;;
18082;SDS011;9168;51.194;6.840;2022-08-19T11:48:25;15.32;;;9.45;;
18082;SDS011;9168;51.194;6.840;2022-08-19T11:50:52;16.00;;;10.00;;
18082;SDS011;9168;51.194;6.840;2022-08-19T11:53:21;13.25;;;9.43;;
18082;SDS011;9168;51.194;6.840;2022-08-19T11:55:49;16.95;;;9.35;;
18082;SDS011;9168;51.194;6.840;2022-08-19T11:58:21;15.32;;;9.48;;
18082;SDS011;9168;51.194;6.840;2022-08-19T12:00:49;16.83;;;8.57;;
18082;SDS011;9168;51.194;6.840;2022-08-19T12:03:16;12.75;;;7.53;;
18082;SDS011;9168;51.194;6.840;2022-08-19T12:05:44;15.90;;;6.80;;
18082;SDS011;9168;51.194;6.840;2022-08-19T12:08:11;14.95;;;7.68;;
18082;SDS011;9168;51.194;6.840;2022-08-19T12:10:40;13.18;;;7.18;;
18082;SDS011;9168;51.194;6.840;2022-08-19T12:13:07;13.98;;;7.68;;
18082;SDS011;9168;51.194;6.840;2022-08-19T12:15:35;13.00;;;7.22;;
18082;SDS011;9168;51.194;6.840;2022-08-19T12:18:04;10.63;;;6.60;;
18082;SDS011;9168;51.194;6.840;2022-08-19T12:20:33;15.32;;;7.95;;
18082;SDS011;9168;51.194;6.840;2022-08-19T12:23:01;13.77;;;9.75;;
18082;SDS011;9168;51.194;6.840;2022-08-19T12:25:28;16.75;;;8.18;;
18082;SDS011;9168;51.194;6.840;2022-08-19T12:27:55;11.75;;;7.68;;
18082;SDS011;9168;51.194;6.840;2022-08-19T12:30:22;13.15;;;9.63;;
18082;SDS011;9168;51.194;6.840;2022-08-19T12:32:49;14.88;;;8.73;;
18082;SDS011;9168;51.194;6.840;2022-08-19T12:35:18;18.33;;;7.45;;
18082;SDS011;9168;51.194;6.840;2022-08-19T12:37:46;13.85;;;7.93;;
18082;SDS011;9168;51.194;6.840;2022-08-19T12:40:14;11.98;;;8.10;;
18082;SDS011;9168;51.194;6.840;2022-08-19T12:42:42;11.27;;;7.28;;
18082;SDS011;9168;51.194;6.840;2022-08-19T12:45:10;13.70;;;7.28;;
18082;SDS011;9168;51.194;6.840;2022-08-19T12:51:14;14.85;;;7.78;;
18082;SDS011;9168;51.194;6.840;2022-08-19T12:53:43;11.73;;;7.40;;
18082;SDS011;9168;51.194;6.840;2022-08-19T12:56:10;13.20;;;7.00;;
18082;SDS011;9168;51.194;6.840;2022-08-19T12:58:39;12.25;;;7.03;;
18082;SDS011;9168;51.194;6.840;2022-08-19T13:01:08;10.63;;;7.05;;
18082;SDS011;9168;51.194;6.840;2022-08-19T13:03:36;14.57;;;6.68;;
18082;SDS011;9168;51.194;6.840;2022-08-19T13:06:03;11.93;;;6.63;;
18082;SDS011;9168;51.194;6.840;2022-08-19T13:08:31;10.20;;;6.60;;
18082;SDS011;9168;51.194;6.840;2022-08-19T13:11:05;10.00;;;6.97;;
18082;SDS011;9168;51.194;6.840;2022-08-19T13:14:31;10.10;;;6.82;;
18082;SDS011;9168;51.194;6.840;2022-08-19T13:16:59;11.77;;;7.25;;
18082;SDS011;9168;51.194;6.840;2022-08-19T13:19:26;13.50;;;7.20;;
18082;SDS011;9168;51.194;6.840;2022-08-19T13:21:53;14.00;;;7.07;;
18082;SDS011;9168;51.194;6.840;2022-08-19T13:24:21;10.43;;;6.80;;
18082;SDS011;9168;51.194;6.840;2022-08-19T13:26:48;10.07;;;6.72;;
18082;SDS011;9168;51.194;6.840;2022-08-19T13:29:15;17.20;;;6.57;;
18082;SDS011;9168;51.194;6.840;2022-08-19T13:32:01;10.90;;;6.43;;
18082;SDS011;9168;51.194;6.840;2022-08-19T13:34:45;10.18;;;6.55;;
18082;SDS011;9168;51.194;6.840;2022-08-19T13:37:12;12.65;;;6.60;;
18082;SDS011;9168;51.194;6.840;2022-08-19T13:39:39;16.45;;;6.55;;
18082;SDS011;9168;51.194;6.840;2022-08-19T13:42:06;12.40;;;6.43;;
18082;SDS011;9168;51.194;6.840;2022-08-19T13:44:34;7.45;;;5.32;;
18082;SDS011;9168;51.194;6.840;2022-08-19T13:47:03;11.82;;;6.38;;
18082;SDS011;9168;51.194;6.840;2022-08-19T13:49:32;7.07;;;5.40;;
18082;SDS011;9168;51.194;6.840;2022-08-19T13:52:00;10.98;;;5.65;;
18082;SDS011;9168;51.194;6.840;2022-08-19T13:54:28;10.77;;;5.80;;
18082;SDS011;9168;51.194;6.840;2022-08-19T13:56:55;10.27;;;5.45;;
18082;SDS011;9168;51.194;6.840;2022-08-19T13:59:21;8.48;;;5.60;;
18082;SDS011;9168;51.194;6.840;2022-08-19T14:01:48;8.77;;;5.72;;
18082;SDS011;9168;51.194;6.840;2022-08-19T14:04:17;12.07;;;6.75;;
18082;SDS011;9168;51.194;6.840;2022-08-19T14:06:44;12.02;;;6.32;;
18082;SDS011;9168;51.194;6.840;2022-08-19T14:09:10;10.40;;;6.18;;
18082;SDS011;9168;51.194;6.840;2022-08-19T14:11:37;7.55;;;5.97;;
18082;SDS011;9168;51.194;6.840;2022-08-19T14:14:04;8.43;;;5.80;;
18082;SDS011;9168;51.194;6.840;2022-08-19T14:16:31;12.27;;;5.57;;
18082;SDS011;9168;51.194;6.840;2022-08-19T14:18:58;10.35;;;5.72;;
18082;SDS011;9168;51.194;6.840;2022-08-19T14:21:26;15.90;;;5.90;;
18082;SDS011;9168;51.194;6.840;2022-08-19T14:23:53;6.60;;;5.05;;
18082;SDS011;9168;51.194;6.840;2022-08-19T14:26:21;8.68;;;5.13;;
18082;SDS011;9168;51.194;6.840;2022-08-19T14:28:48;8.85;;;5.25;;
18082;SDS011;9168;51.194;6.840;2022-08-19T14:31:17;11.77;;;5.32;;
18082;SDS011;9168;51.194;6.840;2022-08-19T14:33:45;8.38;;;5.15;;
18082;SDS011;9168;51.194;6.840;2022-08-19T14:36:12;7.05;;;4.60;;
18082;SDS011;9168;51.194;6.840;2022-08-19T14:40:35;6.55;;;4.88;;
18082;SDS011;9168;51.194;6.840;2022-08-19T14:43:02;8.13;;;5.25;;
18082;SDS011;9168;51.194;6.840;2022-08-19T14:50:07;10.68;;;5.00;;
18082;SDS011;9168;51.194;6.840;2022-08-19T14:52:35;8.30;;;5.20;;
18082;SDS011;9168;51.194;6.840;2022-08-19T14:55:02;8.10;;;4.93;;
18082;SDS011;9168;51.194;6.840;2022-08-19T14:57:29;7.57;;;4.65;;
18082;SDS011;9168;51.194;6.840;2022-08-19T14:59:56;8.32;;;4.88;;
18082;SDS011;9168;51.194;6.840;2022-08-19T15:02:24;8.68;;;4.80;;